createdAt,value
2022-11-24T00:00:00.201Z,99960
2022-11-24T00:05:00.192Z,99960
2022-11-24T00:10:00.185Z,99970
2022-11-24T00:15:00.189Z,99950
2022-11-24T00:20:00.208Z,99980
2022-11-24T00:25:00.203Z,99950
2022-11-24T00:30:00.229Z,99950
2022-11-24T00:35:00.233Z,99950
2022-11-24T00:40:00.224Z,99960
2022-11-24T00:45:00.766Z,99970
2022-11-24T00:50:00.203Z,99980
2022-11-24T00:55:00.202Z,99980
2022-11-24T01:00:00.201Z,99980
2022-11-24T01:05:00.206Z,99980
2022-11-24T01:10:00.214Z,99980
2022-11-24T01:15:00.221Z,99980
2022-11-24T01:20:00.198Z,100020
2022-11-24T01:25:00.206Z,100020
2022-11-24T01:30:00.236Z,100010
2022-11-24T01:35:00.192Z,100020
2022-11-24T01:40:00.200Z,100020
2022-11-24T01:45:00.190Z,100020
2022-11-24T01:50:00.210Z,100020
2022-11-24T01:55:00.212Z,100020
2022-11-24T02:00:00.224Z,100030
2022-11-24T02:05:00.211Z,100040
2022-11-24T02:10:00.220Z,100040
2022-11-24T02:15:00.189Z,100060
2022-11-24T02:20:00.199Z,100040
2022-11-24T02:25:00.201Z,100060
2022-11-24T02:30:00.205Z,100080
2022-11-24T02:35:00.181Z,100060
2022-11-24T02:40:00.194Z,100070
2022-11-24T02:45:00.189Z,100060
2022-11-24T02:50:00.201Z,100070
2022-11-24T02:55:00.196Z,100060
2022-11-24T03:00:00.225Z,100060
2022-11-24T03:05:00.191Z,100070
2022-11-24T03:10:00.198Z,100070
2022-11-24T03:15:00.206Z,100080
2022-11-24T03:20:04.301Z,100080
2022-11-24T03:25:00.191Z,100060
2022-11-24T03:30:00.238Z,100090
2022-11-24T03:35:00.236Z,100100
2022-11-24T03:40:00.201Z,100100
2022-11-24T03:45:16.649Z,100090
2022-11-24T03:50:00.206Z,100110
2022-11-24T03:55:00.206Z,100090
2022-11-24T04:00:00.229Z,100100
2022-11-24T04:05:00.192Z,100110
2022-11-24T04:10:00.227Z,100130
2022-11-24T04:15:00.202Z,100120
2022-11-24T04:20:00.234Z,100130
2022-11-24T04:25:00.235Z,100130
2022-11-24T04:30:00.229Z,100150
2022-11-24T04:35:00.217Z,100150
2022-11-24T04:40:00.232Z,100150
2022-11-24T04:45:00.228Z,100160
2022-11-24T04:50:00.244Z,100150
2022-11-24T04:55:00.216Z,100150
2022-11-24T05:00:00.229Z,100160
2022-11-24T05:05:00.216Z,100160
2022-11-24T05:10:00.189Z,100180
2022-11-24T05:15:00.183Z,100180
2022-11-24T05:20:00.208Z,100190
2022-11-24T05:25:00.209Z,100200
2022-11-24T05:30:00.272Z,100210
2022-11-24T05:35:00.185Z,100220
2022-11-24T05:40:00.196Z,100230
2022-11-24T05:45:00.183Z,100240
2022-11-24T05:50:00.188Z,100260
2022-11-24T05:55:00.189Z,100230
2022-11-24T06:00:00.217Z,100260
2022-11-24T06:05:00.196Z,100270
2022-11-24T06:10:00.200Z,100290
2022-11-24T06:15:00.179Z,100300
2022-11-24T06:20:00.273Z,100310
2022-11-24T06:25:00.200Z,100310
2022-11-24T06:30:00.194Z,100290
2022-11-24T06:35:00.194Z,100320
2022-11-24T06:40:00.193Z,100330
2022-11-24T06:45:00.453Z,100350
2022-11-24T06:50:00.201Z,100350
2022-11-24T06:55:00.187Z,100370
2022-11-24T07:00:00.234Z,100360
2022-11-24T07:05:00.182Z,100400
2022-11-24T07:10:00.185Z,100390
2022-11-24T07:15:00.215Z,100410
2022-11-24T07:20:00.188Z,100380
2022-11-24T07:25:00.177Z,100420
2022-11-24T07:30:00.205Z,100420
2022-11-24T07:35:00.206Z,100420
2022-11-24T07:40:00.219Z,100420
2022-11-24T07:45:00.197Z,100440
2022-11-24T07:50:00.205Z,100440
2022-11-24T07:55:00.205Z,100460
2022-11-24T08:00:00.232Z,100460
2022-11-24T08:05:00.192Z,100460
2022-11-24T08:10:00.190Z,100470
2022-11-24T08:15:00.226Z,100490
2022-11-24T08:20:00.195Z,100510
2022-11-24T08:25:00.179Z,100510
2022-11-24T08:30:00.202Z,100500
2022-11-24T08:35:13.342Z,100480
2022-11-24T08:40:00.203Z,100500
2022-11-24T08:45:04.932Z,100530
2022-11-24T08:50:00.211Z,100520
2022-11-24T08:55:00.201Z,100540
2022-11-24T09:00:00.245Z,100530
2022-11-24T09:05:00.201Z,100520
2022-11-24T09:10:00.224Z,100550
2022-11-24T09:15:00.196Z,100570
2022-11-24T09:20:00.197Z,100550
2022-11-24T09:25:00.197Z,100560
2022-11-24T09:30:00.206Z,100550
2022-11-24T09:35:00.203Z,100560
2022-11-24T09:40:00.233Z,100570
2022-11-24T09:45:00.213Z,100600
2022-11-24T09:50:00.211Z,100610
2022-11-24T09:55:00.223Z,100610
2022-11-24T10:00:00.212Z,100620
2022-11-24T10:05:00.285Z,100620
2022-11-24T10:10:00.223Z,100630
2022-11-24T10:15:00.187Z,100650
2022-11-24T10:20:00.209Z,100640
2022-11-24T10:25:00.204Z,100650
2022-11-24T10:30:00.251Z,100650
2022-11-24T10:35:00.212Z,100640
2022-11-24T10:40:00.652Z,100650
2022-11-24T10:45:00.232Z,100670
2022-11-24T10:50:00.209Z,100670
2022-11-24T10:55:00.215Z,100690
2022-11-24T11:00:00.200Z,100680
2022-11-24T11:05:00.198Z,100700
2022-11-24T11:10:00.224Z,100690
2022-11-24T11:15:00.201Z,100700
2022-11-24T11:20:02.357Z,100700
2022-11-24T11:25:00.204Z,100720
2022-11-24T11:35:00.197Z,100700
2022-11-24T11:40:00.191Z,100690
2022-11-24T11:45:00.203Z,100720
2022-11-24T11:50:00.187Z,100690
2022-11-24T11:55:00.225Z,100720
2022-11-24T12:00:00.227Z,100700
2022-11-24T12:05:00.219Z,100700
2022-11-24T12:10:00.224Z,100710
2022-11-24T12:15:01.705Z,100710
2022-11-24T12:20:00.199Z,100700
2022-11-24T12:25:00.309Z,100730
2022-11-24T12:30:00.230Z,100710
2022-11-24T12:35:00.224Z,100700
2022-11-24T12:40:00.193Z,100690
2022-11-24T12:45:00.237Z,100700
2022-11-24T12:50:00.224Z,100740
2022-11-24T12:55:00.207Z,100710
2022-11-24T13:00:00.227Z,100720
2022-11-24T13:05:00.192Z,100720
2022-11-24T13:10:00.191Z,100710
2022-11-24T13:15:00.214Z,100720
2022-11-24T13:20:00.222Z,100720
2022-11-24T13:25:00.236Z,100750
2022-11-24T13:30:00.244Z,100730
2022-11-24T13:35:00.209Z,100750
2022-11-24T13:40:00.198Z,100730
2022-11-24T13:45:00.228Z,100740
2022-11-24T13:50:00.253Z,100720
2022-11-24T13:55:00.204Z,100730
2022-11-24T14:00:00.252Z,100730
2022-11-24T14:05:00.209Z,100750
2022-11-24T14:10:00.211Z,100730
2022-11-24T14:15:00.205Z,100710
2022-11-24T14:20:00.233Z,100730
2022-11-24T14:25:00.188Z,100740
2022-11-24T14:30:00.225Z,100730
2022-11-24T14:35:00.269Z,100740
2022-11-24T14:40:00.229Z,100730
2022-11-24T14:45:00.233Z,100750
2022-11-24T14:50:00.324Z,100720
2022-11-24T14:55:17.400Z,100760
2022-11-24T15:00:00.208Z,100730
2022-11-24T15:05:03.260Z,100750
2022-11-24T15:10:00.290Z,100740
2022-11-24T15:15:00.195Z,100760
2022-11-24T15:20:00.226Z,100750
2022-11-24T15:25:00.223Z,100760
2022-11-24T15:30:00.201Z,100740
2022-11-24T15:35:00.236Z,100730
2022-11-24T15:40:00.210Z,100760
2022-11-24T15:45:00.201Z,100760
2022-11-24T15:50:00.201Z,100780
2022-11-24T15:55:00.187Z,100770
2022-11-24T16:00:00.310Z,100780
2022-11-24T16:05:00.223Z,100800
2022-11-24T16:10:00.197Z,100800
2022-11-24T16:15:00.206Z,100760
2022-11-24T16:20:00.986Z,100800
2022-11-24T16:25:00.198Z,100750
2022-11-24T16:30:00.209Z,100780
2022-11-24T16:35:00.192Z,100790
2022-11-24T16:40:00.225Z,100790
2022-11-24T16:45:00.194Z,100770
2022-11-24T16:50:00.223Z,100770
2022-11-24T16:55:00.194Z,100740
2022-11-24T17:00:00.241Z,100780
2022-11-24T17:05:00.190Z,100760
2022-11-24T17:10:00.309Z,100780
2022-11-24T17:15:30.547Z,100810
2022-11-24T17:20:00.347Z,100790
2022-11-24T17:25:00.201Z,100790
2022-11-24T17:30:00.210Z,100800
2022-11-24T17:35:00.207Z,100790
2022-11-24T17:40:26.974Z,100770
2022-11-24T17:45:00.201Z,100770
2022-11-24T17:50:00.205Z,100770
2022-11-24T17:55:00.583Z,100790
2022-11-24T18:00:00.223Z,100800
2022-11-24T18:05:00.184Z,100790
2022-11-24T18:10:00.188Z,100800
2022-11-24T18:15:00.177Z,100800
2022-11-24T18:20:00.180Z,100790
2022-11-24T18:25:00.197Z,100790
2022-11-24T18:30:00.315Z,100790
2022-11-24T18:35:00.209Z,100810
2022-11-24T18:40:00.198Z,100810
2022-11-24T18:45:00.181Z,100780
2022-11-24T18:50:00.217Z,100780
2022-11-24T18:55:00.196Z,100780
2022-11-24T19:00:00.205Z,100780
2022-11-24T19:05:00.195Z,100770
2022-11-24T19:10:00.196Z,100790
2022-11-24T19:15:00.185Z,100760
2022-11-24T19:20:00.191Z,100770
2022-11-24T19:25:00.200Z,100790
2022-11-24T19:30:00.203Z,100750
2022-11-24T19:35:00.221Z,100760
2022-11-24T19:40:00.214Z,100770
2022-11-24T19:45:00.199Z,100740
2022-11-24T19:50:00.188Z,100760
2022-11-24T19:55:00.188Z,100740
2022-11-24T20:00:00.244Z,100740
2022-11-24T20:05:00.206Z,100750
2022-11-24T20:10:06.079Z,100730
2022-11-24T20:15:00.208Z,100730
2022-11-24T20:20:00.206Z,100760
2022-11-24T20:25:00.175Z,100730
2022-11-24T20:30:00.238Z,100770
2022-11-24T20:35:00.186Z,100760
2022-11-24T20:40:00.199Z,100750
2022-11-24T20:45:00.169Z,100770
2022-11-24T20:50:00.177Z,100780
2022-11-24T20:55:00.171Z,100750
2022-11-24T21:00:00.240Z,100760
2022-11-24T21:05:00.171Z,100770
2022-11-24T21:10:00.185Z,100780
2022-11-24T21:15:00.176Z,100770
2022-11-24T21:20:01.239Z,100780
2022-11-24T21:25:00.187Z,100770
2022-11-24T21:30:00.215Z,100760
2022-11-24T21:35:00.177Z,100780
2022-11-24T21:40:00.175Z,100760
2022-11-24T21:45:00.163Z,100770
2022-11-24T21:50:00.180Z,100750
2022-11-24T21:55:00.172Z,100760
2022-11-24T22:00:00.190Z,100740
2022-11-24T22:05:00.184Z,100740
2022-11-24T22:10:00.200Z,100740
2022-11-24T22:15:00.175Z,100720
2022-11-24T22:20:00.213Z,100730
2022-11-24T22:25:00.184Z,100720
2022-11-24T22:30:00.216Z,100740
2022-11-24T22:35:00.172Z,100720
2022-11-24T22:40:00.169Z,100730
2022-11-24T22:45:00.176Z,100720
2022-11-24T22:50:00.169Z,100730
2022-11-24T22:55:00.196Z,100710
2022-11-24T23:00:00.226Z,100700
2022-11-24T23:05:00.167Z,100700
2022-11-24T23:10:00.184Z,100720
2022-11-24T23:15:00.172Z,100700
2022-11-24T23:20:00.188Z,100720
2022-11-24T23:25:00.166Z,100720
2022-11-24T23:30:00.184Z,100720
2022-11-24T23:35:00.187Z,100680
2022-11-24T23:40:00.185Z,100700
2022-11-24T23:45:00.178Z,100700
2022-11-24T23:50:00.167Z,100710
2022-11-24T23:55:00.184Z,100690
